sensor_id;sensor_type;location;lat;lon;timestamp;pressure;altitude;pressure_sealevel;temperature;humidity
47054;BME280;32811;52.382;5.270;2023-02-13T00:00:07;103880.38;;;5.56;100.00
47054;BME280;32811;52.382;5.270;2023-02-13T00:02:34;103857.28;;;5.45;100.00
47054;BME280;32811;52.382;5.270;2023-02-13T00:05:01;103869.13;;;5.54;100.00
47054;BME280;32811;52.382;5.270;2023-02-13T00:07:28;103877.59;;;5.53;100.00
47054;BME280;32811;52.382;5.270;2023-02-13T00:09:54;103880.81;;;5.51;100.00
47054;BME280;32811;52.382;5.270;2023-02-13T00:12:21;103847.38;;;5.37;100.00
47054;BME280;32811;52.382;5.270;2023-02-13T00:14:47;103836.78;;;5.33;100.00
47054;BME280;32811;52.382;5.270;2023-02-13T00:17:14;103863.56;;;5.48;100.00
47054;BME280;32811;52.382;5.270;2023-02-13T00:19:40;103852.84;;;5.42;100.00
47054;BME280;32811;52.382;5.270;2023-02-13T00:22:07;103859.09;;;5.46;100.00
47054;BME280;32811;52.382;5.270;2023-02-13T00:24:35;103856.41;;;5.44;100.00
47054;BME280;32811;52.382;5.270;2023-02-13T00:27:02;103860.88;;;5.47;100.00
47054;BME280;32811;52.382;5.270;2023-02-13T00:29:28;103847.63;;;5.40;100.00
47054;BME280;32811;52.382;5.270;2023-02-13T00:31:55;103849.28;;;5.40;100.00
47054;BME280;32811;52.382;5.270;2023-02-13T00:34:22;103858.22;;;5.45;100.00
47054;BME280;32811;52.382;5.270;2023-02-13T00:36:48;103832.47;;;5.32;100.00
47054;BME280;32811;52.382;5.270;2023-02-13T00:39:15;103810.97;;;5.18;100.00
47054;BME280;32811;52.382;5.270;2023-02-13T00:41:42;103829.00;;;5.31;100.00
47054;BME280;32811;52.382;5.270;2023-02-13T00:44:09;103850.06;;;5.39;100.00
47054;BME280;32811;52.382;5.270;2023-02-13T00:46:36;103855.94;;;5.38;100.00
47054;BME280;32811;52.382;5.270;2023-02-13T00:49:04;103847.03;;;5.33;100.00
47054;BME280;32811;52.382;5.270;2023-02-13T00:51:31;103839.13;;;5.30;100.00
47054;BME280;32811;52.382;5.270;2023-02-13T00:53:58;103854.59;;;5.31;100.00
47054;BME280;32811;52.382;5.270;2023-02-13T00:56:24;103840.34;;;5.23;100.00
47054;BME280;32811;52.382;5.270;2023-02-13T00:58:51;103819.94;;;5.13;100.00
47054;BME280;32811;52.382;5.270;2023-02-13T01:01:18;103827.88;;;5.16;100.00
47054;BME280;32811;52.382;5.270;2023-02-13T01:03:45;103834.97;;;5.20;100.00
47054;BME280;32811;52.382;5.270;2023-02-13T01:06:11;103777.16;;;4.88;100.00
47054;BME280;32811;52.382;5.270;2023-02-13T01:08:39;103839.13;;;5.18;100.00
47054;BME280;32811;52.382;5.270;2023-02-13T01:11:06;103829.31;;;5.12;100.00
47054;BME280;32811;52.382;5.270;2023-02-13T01:13:32;103845.13;;;5.18;100.00
47054;BME280;32811;52.382;5.270;2023-02-13T01:15:59;103843.59;;;5.20;100.00
47054;BME280;32811;52.382;5.270;2023-02-13T01:18:26;103816.69;;;5.04;100.00
47054;BME280;32811;52.382;5.270;2023-02-13T01:21:00;103841.03;;;5.20;100.00
47054;BME280;32811;52.382;5.270;2023-02-13T01:23:36;103861.84;;;5.25;100.00
47054;BME280;32811;52.382;5.270;2023-02-13T01:26:04;103858.63;;;5.28;100.00
47054;BME280;32811;52.382;5.270;2023-02-13T01:28:31;103819.38;;;5.05;100.00
47054;BME280;32811;52.382;5.270;2023-02-13T01:30:57;103859.38;;;5.27;100.00
47054;BME280;32811;52.382;5.270;2023-02-13T01:33:26;103835.91;;;5.20;100.00
47054;BME280;32811;52.382;5.270;2023-02-13T01:35:53;103845.94;;;5.29;100.00
47054;BME280;32811;52.382;5.270;2023-02-13T01:38:20;103849.25;;;5.28;100.00
47054;BME280;32811;52.382;5.270;2023-02-13T01:40:52;103856.19;;;5.29;100.00
47054;BME280;32811;52.382;5.270;2023-02-13T01:43:20;103859.63;;;5.30;100.00
47054;BME280;32811;52.382;5.270;2023-02-13T01:45:52;103860.16;;;5.26;100.00
47054;BME280;32811;52.382;5.270;2023-02-13T01:48:23;103848.38;;;5.28;100.00
47054;BME280;32811;52.382;5.270;2023-02-13T01:51:00;103822.41;;;5.11;100.00
47054;BME280;32811;52.382;5.270;2023-02-13T01:53:29;103850.16;;;5.29;100.00
47054;BME280;32811;52.382;5.270;2023-02-13T01:56:02;103842.91;;;5.23;100.00
47054;BME280;32811;52.382;5.270;2023-02-13T01:58:33;103846.69;;;5.28;100.00
47054;BME280;32811;52.382;5.270;2023-02-13T02:01:02;103842.91;;;5.23;100.00
47054;BME280;32811;52.382;5.270;2023-02-13T02:03:34;103846.47;;;5.25;100.00
47054;BME280;32811;52.382;5.270;2023-02-13T02:06:02;103839.47;;;5.23;100.00
47054;BME280;32811;52.382;5.270;2023-02-13T02:08:30;103837.91;;;5.25;100.00
47054;BME280;32811;52.382;5.270;2023-02-13T02:11:04;103836.34;;;5.27;100.00
47054;BME280;32811;52.382;5.270;2023-02-13T02:13:32;103834.22;;;5.21;100.00
47054;BME280;32811;52.382;5.270;2023-02-13T02:15:59;103837.25;;;5.27;100.00
47054;BME280;32811;52.382;5.270;2023-02-13T02:18:26;103816.97;;;5.18;100.00
47054;BME280;32811;52.382;5.270;2023-02-13T02:29:48;103829.66;;;5.17;100.00
47054;BME280;32811;52.382;5.270;2023-02-13T02:40:56;103829.66;;;5.17;100.00
47054;BME280;32811;52.382;5.270;2023-02-13T02:43:33;103825.31;;;5.16;100.00
47054;BME280;32811;52.382;5.270;2023-02-13T02:46:31;103827.63;;;5.13;100.00
47054;BME280;32811;52.382;5.270;2023-02-13T02:49:03;103826.31;;;5.18;100.00
47054;BME280;32811;52.382;5.270;2023-02-13T02:54:39;103826.19;;;5.16;100.00
47054;BME280;32811;52.382;5.270;2023-02-13T02:57:30;103816.38;;;5.11;100.00
47054;BME280;32811;52.382;5.270;2023-02-13T03:00:19;103826.19;;;5.16;100.00
47054;BME280;32811;52.382;5.270;2023-02-13T03:03:18;103816.63;;;5.14;100.00
47054;BME280;32811;52.382;5.270;2023-02-13T03:06:11;103820.94;;;5.15;100.00
47054;BME280;32811;52.382;5.270;2023-02-13T03:08:42;103817.50;;;5.14;100.00
47054;BME280;32811;52.382;5.270;2023-02-13T03:11:29;103823.75;;;5.18;100.00
47054;BME280;32811;52.382;5.270;2023-02-13T03:14:16;103820.28;;;5.17;100.00
47054;BME280;32811;52.382;5.270;2023-02-13T03:16:45;103824.53;;;5.17;100.00
47054;BME280;32811;52.382;5.270;2023-02-13T03:19:41;103815.84;;;5.15;100.00
47054;BME280;32811;52.382;5.270;2023-02-13T03:25:42;103818.53;;;5.16;100.00
47054;BME280;32811;52.382;5.270;2023-02-13T03:28:26;103822.09;;;5.18;100.00
47054;BME280;32811;52.382;5.270;2023-02-13T03:31:36;103816.97;;;5.18;100.00
47054;BME280;32811;52.382;5.270;2023-02-13T03:34:09;103818.53;;;5.16;100.00
47054;BME280;32811;52.382;5.270;2023-02-13T03:39:51;103808.03;;;5.13;100.00
47054;BME280;32811;52.382;5.270;2023-02-13T03:42:32;103819.41;;;5.17;100.00
47054;BME280;32811;52.382;5.270;2023-02-13T03:45:05;103798.13;;;5.06;100.00
47054;BME280;32811;52.382;5.270;2023-02-13T03:47:54;103818.28;;;5.13;100.00
47054;BME280;32811;52.382;5.270;2023-02-13T03:50:24;103811.59;;;5.15;100.00
47054;BME280;32811;52.382;5.270;2023-02-13T03:52:56;103806.25;;;5.12;100.00
47054;BME280;32811;52.382;5.270;2023-02-13T03:55:30;103822.09;;;5.18;100.00
47054;BME280;32811;52.382;5.270;2023-02-13T03:58:22;103818.53;;;5.16;100.00
47054;BME280;32811;52.382;5.270;2023-02-13T04:01:10;103804.38;;;5.10;100.00
47054;BME280;32811;52.382;5.270;2023-02-13T04:04:04;103815.06;;;5.16;100.00
47054;BME280;32811;52.382;5.270;2023-02-13T04:09:03;103806.81;;;5.08;100.00
47054;BME280;32811;52.382;5.270;2023-02-13T04:14:24;103821.28;;;5.19;100.00
47054;BME280;32811;52.382;5.270;2023-02-13T04:16:58;103811.84;;;5.18;100.00
47054;BME280;32811;52.382;5.270;2023-02-13T04:19:28;103811.06;;;5.19;100.00
47054;BME280;32811;52.382;5.270;2023-02-13T04:21:56;103810.03;;;5.17;100.00
47054;BME280;32811;52.382;5.270;2023-02-13T04:24:25;103809.28;;;5.18;100.00
47054;BME280;32811;52.382;5.270;2023-02-13T04:26:53;103807.59;;;5.19;100.00
47054;BME280;32811;52.382;5.270;2023-02-13T04:29:25;103761.13;;;4.91;100.00
47054;BME280;32811;52.382;5.270;2023-02-13T04:32:06;103781.19;;;5.08;100.00
47054;BME280;32811;52.382;5.270;2023-02-13T04:34:42;103775.97;;;5.07;100.00
47054;BME280;32811;52.382;5.270;2023-02-13T04:37:09;103780.44;;;5.09;100.00
47054;BME280;32811;52.382;5.270;2023-02-13T04:39:41;103799.38;;;5.23;100.00
47054;BME280;32811;52.382;5.270;2023-02-13T04:42:08;103762.59;;;4.99;100.00
47054;BME280;32811;52.382;5.270;2023-02-13T04:44:35;103790.91;;;5.12;100.00
47054;BME280;32811;52.382;5.270;2023-02-13T04:47:08;103783.09;;;5.11;100.00
47054;BME280;32811;52.382;5.270;2023-02-13T04:49:37;103784.09;;;5.13;100.00
47054;BME280;32811;52.382;5.270;2023-02-13T04:52:04;103762.81;;;5.02;100.00
47054;BME280;32811;52.382;5.270;2023-02-13T04:54:31;103740.91;;;4.94;100.00
47054;BME280;32811;52.382;5.270;2023-02-13T04:57:05;103790.81;;;5.23;100.00
47054;BME280;32811;52.382;5.270;2023-02-13T04:59:32;103782.88;;;5.19;100.00
47054;BME280;32811;52.382;5.270;2023-02-13T05:01:59;103785.56;;;5.21;100.00
47054;BME280;32811;52.382;5.270;2023-02-13T05:04:25;103769.75;;;5.15;100.00
47054;BME280;32811;52.382;5.270;2023-02-13T05:06:52;103787.13;;;5.19;100.00
47054;BME280;32811;52.382;5.270;2023-02-13T05:09:19;103786.44;;;5.22;100.00
47054;BME280;32811;52.382;5.270;2023-02-13T05:11:45;103770.88;;;5.18;100.00
47054;BME280;32811;52.382;5.270;2023-02-13T05:14:12;103782.34;;;5.24;100.00
47054;BME280;32811;52.382;5.270;2023-02-13T05:16:39;103779.56;;;5.20;100.00
47054;BME280;32811;52.382;5.270;2023-02-13T05:19:05;103773.44;;;5.18;100.00
47054;BME280;32811;52.382;5.270;2023-02-13T05:21:32;103774.53;;;5.22;100.00
47054;BME280;32811;52.382;5.270;2023-02-13T05:24:17;103776.09;;;5.20;100.00
47054;BME280;32811;52.382;5.270;2023-02-13T05:26:46;103779.78;;;5.24;100.00
47054;BME280;32811;52.382;5.270;2023-02-13T05:29:12;103783.22;;;5.24;100.00
47054;BME280;32811;52.382;5.270;2023-02-13T05:31:46;103786.78;;;5.26;100.00
47054;BME280;32811;52.382;5.270;2023-02-13T05:34:14;103791.16;;;5.27;100.00
47054;BME280;32811;52.382;5.270;2023-02-13T05:36:41;103779.91;;;5.25;100.00
47054;BME280;32811;52.382;5.270;2023-02-13T05:39:10;103779.78;;;5.24;100.00
47054;BME280;32811;52.382;5.270;2023-02-13T05:41:44;103776.34;;;5.23;100.00
47054;BME280;32811;52.382;5.270;2023-02-13T05:44:12;103766.44;;;5.16;100.00
47054;BME280;32811;52.382;5.270;2023-02-13T05:46:45;103742.59;;;5.05;100.00
47054;BME280;32811;52.382;5.270;2023-02-13T05:49:16;103755.84;;;5.11;100.00
47054;BME280;32811;52.382;5.270;2023-02-13T05:51:44;103733.66;;;5.00;100.00
47054;BME280;32811;52.382;5.270;2023-02-13T05:54:15;103732.00;;;5.01;100.00
47054;BME280;32811;52.382;5.270;2023-02-13T05:56:42;103744.59;;;5.09;100.00
47054;BME280;32811;52.382;5.270;2023-02-13T05:59:09;103783.69;;;5.30;100.00
47054;BME280;32811;52.382;5.270;2023-02-13T06:01:45;103724.09;;;4.97;100.00
47054;BME280;32811;52.382;5.270;2023-02-13T06:04:16;103718.97;;;4.97;100.00
47054;BME280;32811;52.382;5.270;2023-02-13T06:06:46;103769.66;;;5.25;100.00
47054;BME280;32811;52.382;5.270;2023-02-13T06:09:12;103769.66;;;5.25;100.00
47054;BME280;32811;52.382;5.270;2023-02-13T06:11:42;103764.97;;;5.19;100.00
47054;BME280;32811;52.382;5.270;2023-02-13T06:14:12;103743.94;;;5.12;100.00
47054;BME280;32811;52.382;5.270;2023-02-13T06:16:42;103746.16;;;5.07;100.00
47054;BME280;32811;52.382;5.270;2023-02-13T06:19:11;103752.28;;;5.09;100.00
47054;BME280;32811;52.382;5.270;2023-02-13T06:21:44;103747.91;;;5.08;100.00
47054;BME280;32811;52.382;5.270;2023-02-13T06:24:11;103779.91;;;5.25;100.00
47054;BME280;32811;52.382;5.270;2023-02-13T06:26:37;103788.94;;;5.32;100.00
47054;BME280;32811;52.382;5.270;2023-02-13T06:29:04;103776.47;;;5.25;100.00
47054;BME280;32811;52.382;5.270;2023-02-13T06:31:32;103788.69;;;5.29;100.00
47054;BME280;32811;52.382;5.270;2023-02-13T06:33:58;103788.59;;;5.27;100.00
47054;BME280;32811;52.382;5.270;2023-02-13T06:36:33;103786.91;;;5.28;100.00
47054;BME280;32811;52.382;5.270;2023-02-13T06:39:24;103790.34;;;5.28;100.00
47054;BME280;32811;52.382;5.270;2023-02-13T06:42:18;103760.84;;;5.10;100.00
47054;BME280;32811;52.382;5.270;2023-02-13T06:45:22;103742.91;;;4.98;100.00
47054;BME280;32811;52.382;5.270;2023-02-13T06:48:02;103747.03;;;4.96;100.00
47054;BME280;32811;52.382;5.270;2023-02-13T06:50:58;103796.28;;;5.27;100.00
47054;BME280;32811;52.382;5.270;2023-02-13T06:53:29;103798.03;;;5.28;100.00
47054;BME280;32811;52.382;5.270;2023-02-13T06:55:56;103792.72;;;5.25;100.00
47054;BME280;32811;52.382;5.270;2023-02-13T06:58:25;103797.84;;;5.25;100.00
47054;BME280;32811;52.382;5.270;2023-02-13T07:00:52;103789.25;;;5.25;100.00
47054;BME280;32811;52.382;5.270;2023-02-13T07:03:19;103800.47;;;5.27;100.00
47054;BME280;32811;52.382;5.270;2023-02-13T07:05:46;103807.53;;;5.29;100.00
47054;BME280;32811;52.382;5.270;2023-02-13T07:08:12;103806.72;;;5.30;100.00
47054;BME280;32811;52.382;5.270;2023-02-13T07:10:40;103803.97;;;5.27;100.00
47054;BME280;32811;52.382;5.270;2023-02-13T07:13:07;103807.41;;;5.28;100.00
47054;BME280;32811;52.382;5.270;2023-02-13T07:15:35;103812.75;;;5.31;100.00
47054;BME280;32811;52.382;5.270;2023-02-13T07:18:03;103809.97;;;5.28;100.00
47054;BME280;32811;52.382;5.270;2023-02-13T07:20:31;103804.72;;;5.26;100.00
47054;BME280;32811;52.382;5.270;2023-02-13T07:23:02;103821.44;;;5.33;100.00
47054;BME280;32811;52.382;5.270;2023-02-13T07:25:30;103812.75;;;5.31;100.00
47054;BME280;32811;52.382;5.270;2023-02-13T07:28:01;103819.53;;;5.30;100.00
47054;BME280;32811;52.382;5.270;2023-02-13T07:30:29;103824.25;;;5.36;100.00
47054;BME280;32811;52.382;5.270;2023-02-13T07:33:00;103812.97;;;5.34;100.00
47054;BME280;32811;52.382;5.270;2023-02-13T07:35:27;103816.56;;;5.36;100.00
47054;BME280;32811;52.382;5.270;2023-02-13T07:37:54;103815.63;;;5.35;100.00
47054;BME280;32811;52.382;5.270;2023-02-13T07:40:21;103829.69;;;5.40;100.00
47054;BME280;32811;52.382;5.270;2023-02-13T07:42:48;103821.00;;;5.38;100.00
47054;BME280;32811;52.382;5.270;2023-02-13T07:45:15;103806.41;;;5.37;100.00
47054;BME280;32811;52.382;5.270;2023-02-13T07:47:41;103809.97;;;5.39;100.00
47054;BME280;32811;52.382;5.270;2023-02-13T07:50:08;103815.44;;;5.44;100.00
47054;BME280;32811;52.382;5.270;2023-02-13T07:52:35;103833.03;;;5.51;100.00
47054;BME280;32811;52.382;5.270;2023-02-13T07:55:05;103813.75;;;5.45;100.00
47054;BME280;32811;52.382;5.270;2023-02-13T07:57:32;103834.16;;;5.55;100.00
47054;BME280;32811;52.382;5.270;2023-02-13T07:59:59;103827.00;;;5.51;100.00
47054;BME280;32811;52.382;5.270;2023-02-13T08:02:25;103824.78;;;5.55;100.00
47054;BME280;32811;52.382;5.270;2023-02-13T08:04:52;103821.66;;;5.59;100.00
47054;BME280;32811;52.382;5.270;2023-02-13T08:07:19;103830.38;;;5.61;100.00
47054;BME280;32811;52.382;5.270;2023-02-13T08:09:46;103832.38;;;5.66;100.00
47054;BME280;32811;52.382;5.270;2023-02-13T08:12:31;103842.84;;;5.69;100.00
47054;BME280;32811;52.382;5.270;2023-02-13T08:15:00;103829.03;;;5.67;100.00
47054;BME280;32811;52.382;5.270;2023-02-13T08:17:26;103833.72;;;5.72;100.00
47054;BME280;32811;52.382;5.270;2023-02-13T08:19:53;103828.03;;;5.76;100.00
47054;BME280;32811;52.382;5.270;2023-02-13T08:22:20;103836.59;;;5.77;100.00
47054;BME280;32811;52.382;5.270;2023-02-13T08:24:47;103839.16;;;5.77;100.00
47054;BME280;32811;52.382;5.270;2023-02-13T08:27:18;103844.84;;;5.85;100.00
47054;BME280;32811;52.382;5.270;2023-02-13T08:29:44;103828.13;;;5.78;100.00
47054;BME280;32811;52.382;5.270;2023-02-13T08:32:11;103836.06;;;5.81;100.00
47054;BME280;32811;52.382;5.270;2023-02-13T08:34:37;103836.25;;;5.84;100.00
47054;BME280;32811;52.382;5.270;2023-02-13T08:37:04;103839.94;;;5.88;100.00
47054;BME280;32811;52.382;5.270;2023-02-13T08:39:31;103837.97;;;5.95;100.00
47054;BME280;32811;52.382;5.270;2023-02-13T08:41:57;103839.75;;;5.96;100.00
47054;BME280;32811;52.382;5.270;2023-02-13T08:44:24;103840.97;;;6.01;100.00
47054;BME280;32811;52.382;5.270;2023-02-13T08:46:51;103829.03;;;6.02;100.00
47054;BME280;32811;52.382;5.270;2023-02-13T08:49:17;103824.69;;;6.01;100.00
47054;BME280;32811;52.382;5.270;2023-02-13T08:51:44;103828.34;;;6.05;100.00
47054;BME280;32811;52.382;5.270;2023-02-13T08:54:11;103830.34;;;6.09;100.00
47054;BME280;32811;52.382;5.270;2023-02-13T08:56:37;103830.59;;;6.12;100.00
47054;BME280;32811;52.382;5.270;2023-02-13T08:59:04;103815.78;;;6.08;100.00
47054;BME280;32811;52.382;5.270;2023-02-13T09:01:30;103831.13;;;6.19;100.00
47054;BME280;32811;52.382;5.270;2023-02-13T09:03:57;103838.47;;;6.27;100.00
47054;BME280;32811;52.382;5.270;2023-02-13T09:06:24;103839.66;;;6.32;100.00
47054;BME280;32811;52.382;5.270;2023-02-13T09:08:54;103823.38;;;6.31;100.00
47054;BME280;32811;52.382;5.270;2023-02-13T09:11:21;103834.09;;;6.37;100.00
47054;BME280;32811;52.382;5.270;2023-02-13T09:13:52;103837.22;;;6.33;100.00
47054;BME280;32811;52.382;5.270;2023-02-13T09:16:19;103834.09;;;6.37;100.00
47054;BME280;32811;52.382;5.270;2023-02-13T09:18:46;103833.41;;;6.40;100.00
47054;BME280;32811;52.382;5.270;2023-02-13T09:21:14;103807.78;;;6.28;100.00
47054;BME280;32811;52.382;5.270;2023-02-13T09:23:43;103824.47;;;6.47;100.00
47054;BME280;32811;52.382;5.270;2023-02-13T09:26:12;103827.47;;;6.53;100.00
47054;BME280;32811;52.382;5.270;2023-02-13T09:28:40;103823.41;;;6.56;100.00
47054;BME280;32811;52.382;5.270;2023-02-13T09:31:09;103828.66;;;6.58;100.00
47054;BME280;32811;52.382;5.270;2023-02-13T09:33:36;103789.91;;;6.41;100.00
47054;BME280;32811;52.382;5.270;2023-02-13T09:36:04;103779.63;;;6.41;100.00
47054;BME280;32811;52.382;5.270;2023-02-13T09:38:32;103837.53;;;6.75;100.00
47054;BME280;32811;52.382;5.270;2023-02-13T09:44:35;103833.13;;;6.85;100.00
47054;BME280;32811;52.382;5.270;2023-02-13T09:47:30;103823.06;;;6.89;100.00
47054;BME280;32811;52.382;5.270;2023-02-13T09:50:25;103828.50;;;6.93;100.00
47054;BME280;32811;52.382;5.270;2023-02-13T09:52:55;103823.66;;;6.98;100.00
47054;BME280;32811;52.382;5.270;2023-02-13T09:58:18;103826.38;;;7.13;100.00
47054;BME280;32811;52.382;5.270;2023-02-13T10:00:50;103836.56;;;7.24;100.00
47054;BME280;32811;52.382;5.270;2023-02-13T10:03:31;103827.97;;;7.24;100.00
47054;BME280;32811;52.382;5.270;2023-02-13T10:08:41;103808.31;;;7.38;100.00
47054;BME280;32811;52.382;5.270;2023-02-13T10:17:10;103824.94;;;7.83;100.00
47054;BME280;32811;52.382;5.270;2023-02-13T10:19:53;103825.63;;;7.94;100.00
47054;BME280;32811;52.382;5.270;2023-02-13T10:22:45;103802.06;;;7.87;100.00
47054;BME280;32811;52.382;5.270;2023-02-13T10:25:17;103821.34;;;8.07;100.00
47054;BME280;32811;52.382;5.270;2023-02-13T10:27:51;103817.88;;;8.07;100.00
47054;BME280;32811;52.382;5.270;2023-02-13T10:30:23;103811.03;;;8.07;100.00
47054;BME280;32811;52.382;5.270;2023-02-13T10:38:40;103814.97;;;8.29;100.00
47054;BME280;32811;52.382;5.270;2023-02-13T10:44:24;103818.56;;;8.18;100.00
47054;BME280;32811;52.382;5.270;2023-02-13T10:52:36;103803.16;;;8.32;100.00
47054;BME280;32811;52.382;5.270;2023-02-13T10:55:11;103799.09;;;8.36;100.00
47054;BME280;32811;52.382;5.270;2023-02-13T10:58:35;103800.97;;;8.39;100.00
47054;BME280;32811;52.382;5.270;2023-02-13T11:03:43;103792.97;;;8.34;100.00
47054;BME280;32811;52.382;5.270;2023-02-13T11:06:14;103785.75;;;8.42;100.00
47054;BME280;32811;52.382;5.270;2023-02-13T11:08:45;103789.38;;;8.45;100.00
47054;BME280;32811;52.382;5.270;2023-02-13T11:11:34;103780.47;;;8.54;100.00
47054;BME280;32811;52.382;5.270;2023-02-13T11:16:47;103783.13;;;8.70;100.00
47054;BME280;32811;52.382;5.270;2023-02-13T11:19:34;103779.25;;;8.91;100.00
47054;BME280;32811;52.382;5.270;2023-02-13T11:22:14;103780.16;;;9.07;100.00
47054;BME280;32811;52.382;5.270;2023-02-13T11:24:51;103784.88;;;9.14;100.00
47054;BME280;32811;52.382;5.270;2023-02-13T11:27:23;103749.66;;;9.00;100.00
47054;BME280;32811;52.382;5.270;2023-02-13T11:29:55;103780.41;;;9.26;100.00
47054;BME280;32811;52.382;5.270;2023-02-13T11:32:25;103766.91;;;9.16;100.00
47054;BME280;32811;52.382;5.270;2023-02-13T11:34:52;103772.34;;;9.20;100.00
47054;BME280;32811;52.382;5.270;2023-02-13T11:37:22;103764.25;;;9.14;100.00
47054;BME280;32811;52.382;5.270;2023-02-13T11:39:55;103765.03;;;9.13;100.00
47054;BME280;32811;52.382;5.270;2023-02-13T11:42:31;103757.75;;;9.06;100.00
47054;BME280;32811;52.382;5.270;2023-02-13T11:45:00;103752.25;;;9.00;100.00
47054;BME280;32811;52.382;5.270;2023-02-13T11:47:40;103751.16;;;9.26;100.00
47054;BME280;32811;52.382;5.270;2023-02-13T11:50:29;103730.00;;;9.31;100.00
47054;BME280;32811;52.382;5.270;2023-02-13T11:55:42;103727.75;;;9.69;100.00
47054;BME280;32811;52.382;5.270;2023-02-13T12:00:40;103726.34;;;9.43;100.00
47054;BME280;32811;52.382;5.270;2023-02-13T12:03:27;103719.72;;;9.31;100.00
47054;BME280;32811;52.382;5.270;2023-02-13T12:08:36;103715.28;;;9.60;100.00
47054;BME280;32811;52.382;5.270;2023-02-13T12:13:48;103711.53;;;9.55;100.00
47054;BME280;32811;52.382;5.270;2023-02-13T12:16:33;103712.44;;;9.55;100.00
47054;BME280;32811;52.382;5.270;2023-02-13T12:19:22;103716.41;;;9.65;100.00
47054;BME280;32811;52.382;5.270;2023-02-13T12:36:01;103704.03;;;9.60;100.00
47054;BME280;32811;52.382;5.270;2023-02-13T12:41:21;103712.38;;;9.70;100.00
47054;BME280;32811;52.382;5.270;2023-02-13T12:44:04;103709.16;;;9.74;100.00
47054;BME280;32811;52.382;5.270;2023-02-13T12:57:27;103693.22;;;9.50;100.00
47054;BME280;32811;52.382;5.270;2023-02-13T13:00:23;103694.31;;;9.54;100.00
47054;BME280;32811;52.382;5.270;2023-02-13T13:03:09;103693.72;;;9.60;100.00
47054;BME280;32811;52.382;5.270;2023-02-13T13:06:16;103682.41;;;9.72;100.00
47054;BME280;32811;52.382;5.270;2023-02-13T13:14:07;103665.41;;;9.92;100.00
47054;BME280;32811;52.382;5.270;2023-02-13T13:16:50;103660.00;;;9.88;100.00
47054;BME280;32811;52.382;5.270;2023-02-13T13:19:33;103663.53;;;9.90;100.00
47054;BME280;32811;52.382;5.270;2023-02-13T13:22:10;103651.38;;;9.87;100.00
47054;BME280;32811;52.382;5.270;2023-02-13T13:25:00;103656.19;;;9.97;100.00
47054;BME280;32811;52.382;5.270;2023-02-13T13:27:32;103657.41;;;10.04;100.00
47054;BME280;32811;52.382;5.270;2023-02-13T13:30:05;103636.28;;;9.95;100.00
47054;BME280;32811;52.382;5.270;2023-02-13T13:32:39;103653.56;;;9.96;100.00
47054;BME280;32811;52.382;5.270;2023-02-13T13:35:13;103642.56;;;10.00;100.00
47054;BME280;32811;52.382;5.270;2023-02-13T13:38:04;103638.47;;;10.04;100.00
47054;BME280;32811;52.382;5.270;2023-02-13T13:40:42;103636.03;;;10.07;100.00
47054;BME280;32811;52.382;5.270;2023-02-13T13:48:56;103633.53;;;10.08;100.00
47054;BME280;32811;52.382;5.270;2023-02-13T13:51:26;103625.31;;;9.99;100.00
47054;BME280;32811;52.382;5.270;2023-02-13T14:07:33;103614.63;;;9.91;100.00
47054;BME280;32811;52.382;5.270;2023-02-13T14:16:59;103609.50;;;10.09;100.00
47054;BME280;32811;52.382;5.270;2023-02-13T14:19:38;103610.81;;;10.01;100.00
47054;BME280;32811;52.382;5.270;2023-02-13T14:24:58;103603.84;;;10.16;100.00
47054;BME280;32811;52.382;5.270;2023-02-13T14:27:28;103594.63;;;10.22;100.00
47054;BME280;32811;52.382;5.270;2023-02-13T14:29:56;103603.03;;;10.17;100.00
47054;BME280;32811;52.382;5.270;2023-02-13T14:32:35;103604.03;;;10.03;100.00
47054;BME280;32811;52.382;5.270;2023-02-13T14:35:06;103607.13;;;9.96;100.00
47054;BME280;32811;52.382;5.270;2023-02-13T14:37:50;103613.47;;;9.86;100.00
47054;BME280;32811;52.382;5.270;2023-02-13T14:42:48;103583.75;;;9.76;100.00
47054;BME280;32811;52.382;5.270;2023-02-13T14:45:20;103604.06;;;9.87;100.00
47054;BME280;32811;52.382;5.270;2023-02-13T14:47:51;103599.69;;;9.86;100.00
47054;BME280;32811;52.382;5.270;2023-02-13T14:50:23;103593.00;;;9.89;100.00
47054;BME280;32811;52.382;5.270;2023-02-13T14:52:54;103578.91;;;9.83;100.00
47054;BME280;32811;52.382;5.270;2023-02-13T14:55:32;103595.81;;;9.94;100.00
47054;BME280;32811;52.382;5.270;2023-02-13T14:58:06;103566.34;;;9.72;100.00
47054;BME280;32811;52.382;5.270;2023-02-13T15:00:44;103569.66;;;9.70;100.00
47054;BME280;32811;52.382;5.270;2023-02-13T15:03:36;103586.56;;;9.81;100.00
47054;BME280;32811;52.382;5.270;2023-02-13T15:06:10;103588.91;;;9.76;100.00
47054;BME280;32811;52.382;5.270;2023-02-13T15:08:47;103574.66;;;9.67;100.00
47054;BME280;32811;52.382;5.270;2023-02-13T15:11:37;103593.66;;;9.85;100.00
47054;BME280;32811;52.382;5.270;2023-02-13T15:17:05;103598.47;;;9.95;100.00
47054;BME280;32811;52.382;5.270;2023-02-13T15:19:35;103593.25;;;9.94;100.00
47054;BME280;32811;52.382;5.270;2023-02-13T15:22:04;103572.31;;;9.71;100.00
47054;BME280;32811;52.382;5.270;2023-02-13T15:24:42;103590.50;;;9.74;100.00
47054;BME280;32811;52.382;5.270;2023-02-13T15:27:17;103580.59;;;9.66;100.00
47054;BME280;32811;52.382;5.270;2023-02-13T15:29:56;103579.53;;;9.62;100.00
47054;BME280;32811;52.382;5.270;2023-02-13T15:32:41;103580.38;;;9.61;100.00
47054;BME280;32811;52.382;5.270;2023-02-13T15:35:29;103572.88;;;9.49;100.00
47054;BME280;32811;52.382;5.270;2023-02-13T15:37:56;103583.56;;;9.57;100.00
47054;BME280;32811;52.382;5.270;2023-02-13T15:40:32;103579.06;;;9.53;100.00
47054;BME280;32811;52.382;5.270;2023-02-13T15:43:01;103584.94;;;9.50;100.00